Time,TemperatureF,DewpointF,PressureIn,WindDirection,WindDirectionDegrees,WindSpeedMPH,WindSpeedGustMPH,Humidity,HourlyPrecipIn,Conditions,Clouds,dailyrainin,SoftwareType,DateUTC
2015-06-03 00:31:00,61.0,53.0,-100.00,ESE,115,0.0,3.0,74,-99.99,,,-99.99,,2015-06-03 04:31:00,
2015-06-03 00:43:00,61.0,53.0,-100.00,ESE,115,0.0,0.0,74,-99.99,,,-99.99,,2015-06-03 04:43:00,
2015-06-03 01:11:00,61.0,53.0,-100.00,NNE,30,0.0,0.0,74,-99.99,,,-99.99,,2015-06-03 05:11:00,
2015-06-03 01:51:00,61.0,53.0,-100.00,NNE,30,0.0,3.0,73,-99.99,,,-99.99,,2015-06-03 05:51:00,
2015-06-03 02:04:00,61.0,53.0,-100.00,NE,40,0.0,3.0,73,-99.99,,,-99.99,,2015-06-03 06:04:00,
2015-06-03 02:11:00,61.0,53.0,-100.00,NNE,20,0.0,0.0,73,-99.99,,,-99.99,,2015-06-03 06:11:00,
2015-06-03 02:31:00,61.0,53.0,-100.00,NE,40,0.0,0.0,73,-99.99,,,-99.99,,2015-06-03 06:31:00,
2015-06-03 02:42:00,61.0,53.0,-100.00,North,0,0.0,1.0,73,-99.99,,,-99.99,,2015-06-03 06:42:00,
2015-06-03 02:51:00,61.0,53.0,-100.00,North,0,0.0,1.0,73,-99.99,,,-99.99,,2015-06-03 06:51:00,
2015-06-03 03:03:00,61.0,53.0,-100.00,North,0,0.0,1.0,73,-99.99,,,-99.99,,2015-06-03 07:03:00,
2015-06-03 03:11:00,61.0,53.0,-100.00,NE,35,0.0,2.0,72,-99.99,,,-99.99,,2015-06-03 07:11:00,
2015-06-03 03:21:00,61.0,53.0,-100.00,NE,35,0.0,2.0,72,-99.99,,,-99.99,,2015-06-03 07:21:00,
2015-06-03 03:31:00,61.0,53.0,-100.00,NE,35,0.0,2.0,72,-99.99,,,-99.99,,2015-06-03 07:31:00,
2015-06-03 03:42:00,61.0,53.0,-100.00,NE,40,0.0,4.0,72,-99.99,,,-99.99,,2015-06-03 07:42:00,
2015-06-03 04:03:00,61.0,53.0,-100.00,NE,55,0.0,4.0,72,-99.99,,,-99.99,,2015-06-03 08:03:00,
2015-06-03 04:51:00,61.0,53.0,-100.00,NE,40,0.0,4.0,73,-99.99,,,-99.99,,2015-06-03 08:51:00,
2015-06-03 05:03:00,61.0,53.0,-100.00,NE,35,0.0,4.0,73,-99.99,,,-99.99,,2015-06-03 09:03:00,
2015-06-03 05:11:00,62.0,53.0,-100.00,NE,40,2.0,5.0,73,-99.99,,,-99.99,,2015-06-03 09:11:00,
2015-06-03 05:42:00,61.0,53.0,-100.00,ESE,105,0.0,1.0,74,-99.99,,,-99.99,,2015-06-03 09:42:00,
2015-06-03 06:03:00,61.0,53.0,-100.00,ENE,65,0.0,3.0,74,-99.99,,,-99.99,,2015-06-03 10:03:00,
2015-06-03 06:42:00,61.0,54.0,-100.00,South,170,0.0,4.0,76,-99.99,,,-99.99,,2015-06-03 10:42:00,
2015-06-03 07:42:00,62.0,55.0,-100.00,East,80,0.0,6.0,77,-99.99,,,-99.99,,2015-06-03 11:42:00,
2015-06-03 07:52:00,62.0,55.0,-100.00,SE,135,0.0,5.0,77,-99.99,,,-99.99,,2015-06-03 11:52:00,
2015-06-03 08:03:00,62.0,55.0,-100.00,ENE,60,0.0,1.0,77,-99.99,,,-99.99,,2015-06-03 12:03:00,
2015-06-03 08:12:00,62.0,55.0,-100.00,NE,40,0.0,3.0,77,-99.99,,,-99.99,,2015-06-03 12:12:00,
2015-06-03 09:02:00,63.0,56.0,-100.00,NE,35,0.0,7.0,76,-99.99,,,-99.99,,2015-06-03 13:02:00,
2015-06-03 09:42:00,65.0,56.0,-100.00,SE,145,0.0,5.0,72,-99.99,,,-99.99,,2015-06-03 13:42:00,
2015-06-03 09:51:00,65.0,56.0,-100.00,SE,145,0.0,5.0,72,-99.99,,,-99.99,,2015-06-03 13:51:00,
2015-06-03 10:03:00,65.0,56.0,-100.00,SE,145,0.0,5.0,72,-99.99,,,-99.99,,2015-06-03 14:03:00,
2015-06-03 10:32:00,68.0,55.0,-100.00,SSE,165,1.0,5.0,63,-99.99,,,-99.99,,2015-06-03 14:32:00,
2015-06-03 10:42:00,68.0,55.0,-100.00,South,175,0.0,6.0,62,-99.99,,,-99.99,,2015-06-03 14:42:00,
2015-06-03 10:53:00,68.0,55.0,-100.00,ESE,120,1.0,5.0,62,-99.99,,,-99.99,,2015-06-03 14:53:00,
2015-06-03 11:43:00,69.0,55.0,-100.00,SSE,150,3.0,6.0,61,-99.99,,,-99.99,,2015-06-03 15:43:00,
2015-06-03 11:52:00,69.0,55.0,-100.00,ENE,65,0.0,5.0,60,-99.99,,,-99.99,,2015-06-03 15:52:00,
2015-06-03 12:33:00,71.0,55.0,-100.00,East,100,1.0,6.0,56,-99.99,,,-99.99,,2015-06-03 16:33:00,
2015-06-03 12:42:00,71.0,54.0,-100.00,East,100,0.0,4.0,55,-99.99,,,-99.99,,2015-06-03 16:42:00,
2015-06-03 13:32:00,73.0,56.0,-100.00,East,90,2.0,5.0,55,-99.99,,,-99.99,,2015-06-03 17:32:00,
2015-06-03 14:03:00,71.0,55.0,-100.00,SE,140,0.0,2.0,57,-99.99,,,-99.99,,2015-06-03 18:03:00,
2015-06-03 15:03:00,72.0,56.0,-100.00,NNE,20,0.0,0.0,57,-99.99,,,-99.99,,2015-06-03 19:03:00,
2015-06-03 15:11:00,72.0,57.0,-100.00,ENE,60,1.0,4.0,57,-99.99,,,-99.99,,2015-06-03 19:11:00,
2015-06-03 15:33:00,73.0,56.0,-100.00,NNW,340,0.0,1.0,56,-99.99,,,-99.99,,2015-06-03 19:33:00,
2015-06-03 15:43:00,74.0,57.0,-100.00,SSE,155,1.0,4.0,55,-99.99,,,-99.99,,2015-06-03 19:43:00,
2015-06-03 15:53:00,75.0,57.0,-100.00,East,85,1.0,5.0,53,-99.99,,,-99.99,,2015-06-03 19:53:00,
2015-06-03 16:03:00,74.0,57.0,-100.00,WSW,255,0.0,5.0,53,-99.99,,,-99.99,,2015-06-03 20:03:00,
2015-06-03 17:02:00,76.0,57.0,-100.00,SE,140,2.0,6.0,50,-99.99,,,-99.99,,2015-06-03 21:02:00,
2015-06-03 17:31:00,74.0,57.0,-100.00,SSE,165,1.0,4.0,54,-99.99,,,-99.99,,2015-06-03 21:31:00,
2015-06-03 17:43:00,74.0,57.0,-100.00,SSE,155,1.0,7.0,54,-99.99,,,-99.99,,2015-06-03 21:43:00,
2015-06-03 18:32:00,74.0,58.0,-100.00,South,180,0.0,3.0,57,-99.99,,,-99.99,,2015-06-03 22:32:00,
2015-06-03 19:11:00,76.0,58.0,-100.00,SSW,200,0.0,2.0,53,-99.99,,,-99.99,,2015-06-03 23:11:00,
2015-06-03 19:32:00,76.0,58.0,-100.00,SSE,160,1.0,6.0,53,-99.99,,,-99.99,,2015-06-03 23:32:00,
2015-06-03 19:42:00,77.0,58.0,-100.00,SSE,155,1.0,4.0,51,-99.99,,,-99.99,,2015-06-03 23:42:00,
2015-06-03 20:01:00,76.0,57.0,-100.00,South,170,0.0,4.0,51,-99.99,,,-99.99,,2015-06-04 00:01:00,
2015-06-03 20:31:00,74.0,58.0,-100.00,SSE,165,1.0,4.0,56,-99.99,,,-99.99,,2015-06-04 00:31:00,